Time;durP1;ratioP1;P1;durP2;ratioP2;P2;SDS_P1;SDS_P2;PMS_P1;PMS_P2;Temp;Humidity;BMP_temperature;BMP_pressure;BME280_temperature;BME280_humidity;BME280_pressure;Samples;Min_cycle;Max_cycle;Signal;HPM_P1;HPM_P2
2023/03/17 00:01:36;;;;;;;4.15;3.95;;;;;;;7.43;67.27;100437.09;6140702;23;20047;-73
2023/03/17 00:04:03;;;;;;;4.38;3.97;;;;;;;7.36;68.31;100434.75;6115519;23;20495;-73
2023/03/17 00:06:32;;;;;;;3.67;3.58;;;;;;;6.03;68.75;100231.72;6140653;23;20447;-74
2023/03/17 00:08:59;;;;;;;4.05;3.85;;;;;;;7.35;68.27;100458.31;6125527;23;20025;-74
2023/03/17 00:11:26;;;;;;;4.55;4.35;;;;;;;7.29;69.04;100469.00;6144625;23;20101;-73
2023/03/17 00:13:53;;;;;;;4.85;4.43;;;;;;;7.34;69.25;100501.00;6108670;23;20013;-73
2023/03/17 00:16:25;;;;;;;5.03;4.07;;;;;;;7.24;68.74;100491.88;6112778;23;20026;-73
2023/03/17 00:18:53;;;;;;;;;;;;;;;7.18;69.50;100478.13;6141663;23;20071;-73
2023/03/17 00:21:31;;;;;;;4.20;3.90;;;;;;;7.15;68.60;100475.66;6134662;23;19957;-73
2023/03/17 00:24:00;;;;;;;3.80;3.60;;;;;;;6.90;69.47;100454.94;6118029;23;20025;-73
2023/03/17 00:26:27;;;;;;;4.20;4.00;;;;;;;7.26;68.40;100508.31;6137317;23;20096;-73
2023/03/17 00:28:54;;;;;;;3.90;3.70;;;;;;;6.91;68.75;100458.41;6087721;23;20056;-73
2023/03/17 00:31:24;;;;;;;4.20;3.90;;;;;;;7.12;69.42;100480.16;6122548;23;20669;-73
2023/03/17 00:33:52;;;;;;;4.85;4.35;;;;;;;6.70;69.14;100421.84;6110506;23;20442;-73
2023/03/17 00:36:22;;;;;;;7.53;4.35;;;;;;;5.87;69.36;100292.19;6108899;23;20596;-72
2023/03/17 00:38:51;;;;;;;4.47;4.18;;;;;;;7.09;70.24;100509.81;6114038;23;20098;-72
2023/03/17 00:41:18;;;;;;;4.20;4.00;;;;;;;6.54;70.54;100441.63;6137907;23;20583;-74
2023/03/17 00:43:44;;;;;;;4.10;3.90;;;;;;;6.69;71.23;100482.72;6084641;23;20025;-73
2023/03/17 00:46:20;;;;;;;4.25;4.05;;;;;;;6.62;72.14;100481.28;6123657;23;20020;-74
2023/03/17 00:48:47;;;;;;;3.97;3.78;;;;;;;6.85;71.71;100521.25;6141219;23;20016;-72
2023/03/17 00:51:16;;;;;;;5.40;4.40;;;;;;;6.87;72.52;100524.66;6137394;23;20024;-72
2023/03/17 00:53:43;;;;;;;4.10;3.88;;;;;;;6.80;73.36;100516.22;6123791;23;20072;-72
2023/03/17 00:56:20;;;;;;;4.93;4.05;;;;;;;6.21;73.29;100431.59;6115475;23;20021;-73
2023/03/17 00:58:47;;;;;;;4.50;4.20;;;;;;;6.91;74.07;100547.94;6109735;23;20642;-73
2023/03/17 01:01:14;;;;;;;4.45;4.10;;;;;;;6.86;73.17;100556.88;6136306;23;20807;-73
2023/03/17 01:03:41;;;;;;;3.97;3.78;;;;;;;6.86;73.29;100556.88;6108726;23;20483;-74
2023/03/17 01:06:10;;;;;;;4.10;3.90;;;;;;;6.34;74.21;100451.06;6099530;23;20029;-73
2023/03/17 01:08:39;;;;;;;3.97;3.78;;;;;;;6.69;73.90;100510.56;6140576;23;20553;-73
2023/03/17 01:11:06;;;;;;;4.78;4.38;;;;;;;6.77;74.00;100498.91;6116157;23;20120;-73
2023/03/17 01:13:33;;;;;;;4.20;4.00;;;;;;;6.98;73.97;100517.25;6140010;23;20032;-74
2023/03/17 01:15:59;;;;;;;4.50;4.10;;;;;;;7.03;73.11;100520.50;6138465;23;20032;-73
2023/03/17 01:18:26;;;;;;;4.03;3.83;;;;;;;7.11;72.52;100513.22;6112853;23;20637;-73
2023/03/17 01:20:53;;;;;;;4.68;4.10;;;;;;;6.95;72.41;100473.00;6141207;23;20023;-74
2023/03/17 01:23:20;;;;;;;4.00;3.80;;;;;;;5.87;72.33;100297.41;6133981;23;20033;-73
2023/03/17 01:25:47;;;;;;;4.05;3.85;;;;;;;6.55;72.13;100409.41;6100307;23;20537;-73
2023/03/17 01:28:17;;;;;;;4.30;3.90;;;;;;;7.17;72.38;100475.59;6133517;23;20081;-73
2023/03/17 01:30:44;;;;;;;6.68;3.95;;;;;;;6.72;72.28;100433.06;6136626;23;20353;-74
2023/03/17 01:33:12;;;;;;;4.35;4.15;;;;;;;6.28;72.82;100354.06;6137594;23;20029;-73
2023/03/17 01:35:42;;;;;;;4.00;3.75;;;;;;;6.80;73.02;100411.91;6122009;23;20036;-73
2023/03/17 01:38:09;;;;;;;4.20;4.00;;;;;;;7.04;72.69;100446.56;6113586;23;21197;-73
2023/03/17 01:40:42;;;;;;;4.10;3.90;;;;;;;7.02;73.14;100443.16;6115982;23;20374;-74
2023/03/17 01:43:08;;;;;;;4.93;4.50;;;;;;;7.08;72.92;100442.06;6138779;23;20020;-73
2023/03/17 01:46:13;;;;;;;4.55;4.35;;;;;;;7.09;72.39;100422.88;6108398;23;20025;-73
2023/03/17 01:48:43;;;;;;;4.95;4.65;;;;;;;7.05;72.93;100424.75;6105578;23;20017;-73
2023/03/17 01:51:17;;;;;;;4.85;4.45;;;;;;;6.94;73.03;100417.38;6136357;23;20013;-73
2023/03/17 01:53:46;;;;;;;4.18;3.90;;;;;;;6.49;73.25;100360.97;6120983;23;20431;-73
2023/03/17 01:56:14;;;;;;;4.45;4.15;;;;;;;6.87;73.55;100428.97;6108367;23;20114;-72
2023/03/17 01:58:41;;;;;;;4.38;4.15;;;;;;;6.64;74.09;100414.28;6142535;23;20514;-72
2023/03/17 02:01:09;;;;;;;4.07;3.88;;;;;;;6.91;74.48;100447.97;6131553;23;20844;-72
2023/03/17 02:03:35;;;;;;;4.03;3.83;;;;;;;6.37;73.79;100357.13;6107062;23;20068;-72
2023/03/17 02:06:03;;;;;;;4.30;4.10;;;;;;;6.06;74.56;100304.56;6107379;23;20045;-73
2023/03/17 02:08:30;;;;;;;4.20;3.85;;;;;;;6.81;74.31;100444.03;6112931;23;20485;-71
2023/03/17 02:10:57;;;;;;;4.13;3.90;;;;;;;6.30;74.14;100358.28;6118337;23;20033;-72
2023/03/17 02:13:23;;;;;;;4.30;4.00;;;;;;;6.81;74.97;100425.78;6136444;23;20775;-73
2023/03/17 02:15:51;;;;;;;4.53;4.22;;;;;;;6.45;74.50;100374.22;6138530;23;20017;-72
2023/03/17 02:18:20;;;;;;;3.83;3.63;;;;;;;6.77;75.45;100415.47;6107079;23;20021;-72
2023/03/17 02:20:46;;;;;;;4.60;4.30;;;;;;;6.75;74.59;100421.66;6140300;23;20050;-73
2023/03/17 02:23:16;;;;;;;4.20;4.00;;;;;;;6.68;75.43;100422.84;6132570;23;20089;-72
2023/03/17 02:25:46;;;;;;;4.30;4.00;;;;;;;6.44;75.34;100403.81;6086314;23;20087;-73
2023/03/17 02:28:17;;;;;;;4.00;3.70;;;;;;;6.10;75.72;100384.28;6113335;23;20668;-72
2023/03/17 02:30:44;;;;;;;4.40;4.17;;;;;;;6.65;75.96;100459.44;6088963;23;20037;-72
2023/03/17 02:33:11;;;;;;;4.47;4.25;;;;;;;5.83;75.66;100347.91;6082655;23;20966;-72
2023/03/17 02:35:38;;;;;;;4.32;4.03;;;;;;;6.48;76.04;100449.69;6094551;23;20067;-72
2023/03/17 02:38:05;;;;;;;4.38;4.07;;;;;;;6.46;76.14;100454.13;6125057;23;20024;-72
2023/03/17 02:40:32;;;;;;;4.18;3.88;;;;;;;6.49;76.28;100456.59;6143410;23;20058;-72
2023/03/17 02:42:59;;;;;;;3.80;3.60;;;;;;;6.32;75.79;100423.38;6114262;23;20473;-75
2023/03/17 02:45:26;;;;;;;4.47;4.18;;;;;;;6.29;75.31;100403.47;6141774;23;20090;-72
2023/03/17 02:47:54;;;;;;;4.47;4.18;;;;;;;6.48;76.05;100440.13;6114264;23;20020;-72
2023/03/17 02:50:26;;;;;;;4.28;4.07;;;;;;;6.27;76.39;100417.47;6086671;23;20075;-72
2023/03/17 02:52:53;;;;;;;4.82;4.50;;;;;;;6.28;76.57;100412.22;6116737;23;20029;-72
2023/03/17 02:55:20;;;;;;;4.70;4.50;;;;;;;6.02;77.36;100373.31;6122710;23;20268;-72
2023/03/17 02:57:46;;;;;;;4.80;4.10;;;;;;;5.81;77.68;100354.94;6136026;23;20021;-72
2023/03/17 03:00:15;;;;;;;4.40;4.10;;;;;;;5.64;77.83;100342.56;6085023;23;20499;-74
2023/03/17 03:02:42;;;;;;;5.25;4.07;;;;;;;6.11;79.47;100444.13;6140740;23;20027;-73
2023/03/17 03:05:09;;;;;;;4.00;3.80;;;;;;;5.60;79.71;100362.66;6142879;23;20066;-73
2023/03/17 03:07:36;;;;;;;5.80;3.95;;;;;;;6.00;79.59;100428.06;6138804;23;20031;-73
2023/03/17 03:10:04;;;;;;;4.10;3.90;;;;;;;5.54;79.53;100388.91;6116512;23;20039;-73
2023/03/17 03:12:31;;;;;;;4.63;4.32;;;;;;;5.87;80.70;100417.19;6085567;23;20055;-72
2023/03/17 03:14:58;;;;;;;3.92;3.72;;;;;;;5.67;80.12;100389.28;6140878;23;20503;-73
2023/03/17 03:17:25;;;;;;;5.10;4.00;;;;;;;5.67;80.80;100393.66;6094811;23;20032;-73
2023/03/17 03:19:54;;;;;;;4.57;4.18;;;;;;;5.97;80.68;100439.47;6119495;23;20051;-72
2023/03/17 03:22:20;;;;;;;4.18;3.90;;;;;;;6.07;80.38;100446.91;6079107;23;20032;-72
2023/03/17 03:24:47;;;;;;;3.88;3.65;;;;;;;5.82;79.58;100382.69;6141564;23;20078;-72
2023/03/17 03:27:13;;;;;;;5.65;5.35;;;;;;;6.16;79.61;100426.56;6111557;23;20084;-73
2023/03/17 03:29:40;;;;;;;4.38;4.15;;;;;;;5.91;78.98;100382.34;6087567;23;20025;-72
2023/03/17 03:32:07;;;;;;;4.07;3.88;;;;;;;6.02;80.57;100405.41;6115103;23;20021;-72
2023/03/17 03:34:33;;;;;;;3.88;3.67;;;;;;;5.10;79.48;100253.47;6090169;23;20099;-73
2023/03/17 03:37:00;;;;;;;11.23;4.40;;;;;;;6.08;79.67;100433.00;6118305;23;20605;-73
2023/03/17 03:39:28;;;;;;;4.32;3.92;;;;;;;4.38;79.72;100157.28;6144900;23;20357;-73
2023/03/17 03:41:57;;;;;;;4.13;3.92;;;;;;;6.15;79.65;100443.13;6115196;23;20036;-73
2023/03/17 03:44:24;;;;;;;4.38;4.00;;;;;;;5.64;80.08;100358.19;6137699;23;20594;-73
2023/03/17 03:46:50;;;;;;;4.15;3.85;;;;;;;4.71;80.70;100235.81;6142331;23;20004;-72
2023/03/17 03:49:17;;;;;;;3.90;3.67;;;;;;;6.06;80.43;100432.19;6114473;23;20089;-73
2023/03/17 03:51:44;;;;;;;3.80;3.60;;;;;;;6.01;80.70;100432.34;6139603;23;20103;-73
2023/03/17 03:54:10;;;;;;;4.13;3.78;;;;;;;5.83;80.41;100405.22;6143146;23;20024;-73
2023/03/17 03:56:36;;;;;;;3.92;3.72;;;;;;;5.58;80.29;100385.28;6112335;23;20031;-72
2023/03/17 03:59:03;;;;;;;4.47;4.20;;;;;;;5.58;80.38;100395.69;6129601;23;20098;-72
2023/03/17 04:01:32;;;;;;;4.53;4.32;;;;;;;5.08;81.14;100316.88;6119144;23;20061;-73
2023/03/17 04:03:59;;;;;;;4.57;4.28;;;;;;;5.35;80.67;100354.91;6114869;23;20624;-74
2023/03/17 04:06:25;;;;;;;4.15;3.85;;;;;;;5.92;81.37;100456.97;6120470;23;20040;-73
2023/03/17 04:08:52;;;;;;;3.80;3.60;;;;;;;5.50;81.72;100402.94;6112748;23;20032;-73
2023/03/17 04:11:18;;;;;;;4.68;4.38;;;;;;;5.08;81.79;100322.91;6138845;23;20017;-72
2023/03/17 04:13:45;;;;;;;4.45;4.15;;;;;;;5.55;81.68;100394.97;6141703;23;20054;-74
2023/03/17 04:16:11;;;;;;;3.92;3.72;;;;;;;5.85;80.90;100450.25;6121413;23;20270;-73
2023/03/17 04:18:38;;;;;;;4.25;3.95;;;;;;;5.50;81.95;100402.94;6143715;23;20017;-72
2023/03/17 04:21:05;;;;;;;3.83;3.63;;;;;;;5.91;82.27;100463.09;6086963;23;20030;-72
2023/03/17 04:23:31;;;;;;;4.60;4.30;;;;;;;5.67;81.56;100419.69;6112636;23;20045;-72
2023/03/17 04:25:57;;;;;;;3.90;3.70;;;;;;;5.84;81.76;100464.22;6088508;23;20598;-73
2023/03/17 04:28:24;;;;;;;4.50;4.20;;;;;;;5.30;81.53;100380.22;6109693;23;20028;-73
2023/03/17 04:30:51;;;;;;;4.10;3.90;;;;;;;5.39;82.58;100389.44;6127154;23;20050;-72
2023/03/17 04:33:19;;;;;;;3.65;3.50;;;;;;;5.43;82.53;100401.44;6112021;23;20065;-73
2023/03/17 04:35:45;;;;;;;3.80;3.60;;;;;;;4.96;82.40;100360.59;6141870;23;20029;-73
2023/03/17 04:38:12;;;;;;;3.28;3.17;;;;;;;4.48;82.80;100244.41;6138219;23;20238;-73
2023/03/17 04:40:38;;;;;;;4.40;4.13;;;;;;;4.95;82.56;100345.91;6127365;23;20041;-73
2023/03/17 04:43:05;;;;;;;3.80;3.60;;;;;;;5.82;83.20;100454.75;6116439;23;20001;-74
2023/03/17 04:45:32;;;;;;;4.45;4.05;;;;;;;5.82;81.82;100441.75;6114344;23;20101;-73
2023/03/17 04:47:58;;;;;;;4.57;4.28;;;;;;;5.64;82.31;100418.06;6138102;23;20041;-73
2023/03/17 04:50:25;;;;;;;6.38;4.20;;;;;;;5.89;81.12;100451.00;6089305;23;20029;-73
2023/03/17 04:52:51;;;;;;;4.38;4.10;;;;;;;5.86;81.51;100448.53;6121870;23;20072;-73
2023/03/17 04:55:18;;;;;;;4.05;3.70;;;;;;;5.51;81.38;100388.16;6144901;23;20082;-73
2023/03/17 04:57:47;;;;;;;4.18;3.97;;;;;;;5.58;81.23;100393.09;6114035;23;20025;-73
2023/03/17 05:00:14;;;;;;;4.80;4.50;;;;;;;5.22;81.26;100326.78;6138640;23;20526;-73
2023/03/17 05:02:41;;;;;;;4.10;3.90;;;;;;;5.74;80.76;100423.78;6136911;23;20080;-72
2023/03/17 05:05:08;;;;;;;4.30;4.10;;;;;;;5.48;80.96;100370.91;6099638;23;20041;-74
2023/03/17 05:07:35;;;;;;;4.10;3.90;;;;;;;5.67;80.08;100396.28;6106797;23;20021;-72
2023/03/17 05:10:02;;;;;;;4.35;4.10;;;;;;;5.91;80.72;100431.84;6124320;23;20053;-74
2023/03/17 05:12:28;;;;;;;4.47;4.18;;;;;;;5.92;80.84;100428.31;6108679;23;20069;-73
2023/03/17 05:14:54;;;;;;;3.80;3.60;;;;;;;5.77;80.82;100427.13;6113225;23;20032;-72
2023/03/17 05:17:21;;;;;;;4.55;4.20;;;;;;;5.94;79.79;100436.91;6091186;23;20009;-74
2023/03/17 05:19:47;;;;;;;4.00;3.80;;;;;;;5.93;79.75;100427.44;6142905;23;20087;-73
2023/03/17 05:22:16;;;;;;;4.00;3.80;;;;;;;5.77;79.54;100414.13;6107860;23;20021;-73
2023/03/17 05:24:43;;;;;;;8.32;4.00;;;;;;;5.64;80.88;100417.22;6125399;23;20041;-73
2023/03/17 05:27:10;;;;;;;5.00;4.25;;;;;;;5.36;80.23;100373.97;6139630;23;20045;-73
2023/03/17 05:29:36;;;;;;;4.47;4.18;;;;;;;5.88;79.81;100454.53;6114360;23;20029;-73
2023/03/17 05:32:03;;;;;;;4.40;4.20;;;;;;;5.69;79.86;100418.75;6136879;23;20029;-72
2023/03/17 05:34:30;;;;;;;12.30;4.22;;;;;;;5.73;80.20;100412.53;6125627;23;20028;-72
2023/03/17 05:36:57;;;;;;;5.85;3.92;;;;;;;5.86;80.11;100425.94;6136864;23;20025;-73
2023/03/17 05:39:23;;;;;;;3.97;3.78;;;;;;;5.44;79.60;100350.28;6103922;23;20040;-73
2023/03/17 05:41:50;;;;;;;4.70;4.25;;;;;;;5.80;79.43;100413.16;6126949;23;20029;-72
2023/03/17 05:44:17;;;;;;;3.90;3.70;;;;;;;5.55;79.31;100374.13;6112431;23;20021;-72
2023/03/17 05:46:46;;;;;;;3.60;3.40;;;;;;;5.95;79.82;100449.09;6112611;23;20021;-73
2023/03/17 05:49:12;;;;;;;3.92;3.72;;;;;;;3.90;80.15;100107.00;6120986;23;21282;-73
2023/03/17 05:51:40;;;;;;;4.05;3.85;;;;;;;5.93;79.92;100439.56;6114152;23;20017;-72
2023/03/17 05:54:07;;;;;;;3.78;3.63;;;;;;;5.70;80.27;100419.59;6093933;23;20035;-72
2023/03/17 05:56:36;;;;;;;4.60;4.30;;;;;;;5.54;79.92;100394.13;6088149;23;20117;-72
2023/03/17 05:59:03;;;;;;;4.43;4.13;;;;;;;6.03;80.59;100453.13;6140014;23;20025;-71
2023/03/17 06:01:30;;;;;;;4.20;4.00;;;;;;;5.78;79.78;100412.34;6097421;23;20029;-74
2023/03/17 06:04:00;;;;;;;4.63;4.32;;;;;;;5.67;79.48;100393.66;6117790;23;20022;-74
2023/03/17 06:06:27;;;;;;;5.28;4.97;;;;;;;5.64;80.78;100393.78;6112800;23;20068;-74
2023/03/17 06:08:53;;;;;;;4.68;4.38;;;;;;;5.69;80.05;100391.84;6126238;23;20023;-73
2023/03/17 06:11:20;;;;;;;4.30;4.07;;;;;;;5.96;79.95;100442.09;6139608;23;20029;-75
2023/03/17 06:13:47;;;;;;;4.55;4.25;;;;;;;5.52;79.73;100343.03;6112982;23;20345;-74
2023/03/17 06:16:14;;;;;;;4.65;4.35;;;;;;;6.20;80.26;100450.75;6132940;23;20037;-75
2023/03/17 06:18:41;;;;;;;4.15;3.95;;;;;;;6.16;78.82;100433.53;6111126;23;20023;-74
2023/03/17 06:21:07;;;;;;;4.20;3.88;;;;;;;5.66;78.68;100329.50;6089866;23;20033;-75
2023/03/17 06:23:33;;;;;;;5.10;4.70;;;;;;;6.16;78.41;100415.31;6124332;23;20035;-75
2023/03/17 06:26:00;;;;;;;4.07;3.88;;;;;;;6.43;78.95;100454.22;6141945;23;20045;-75
2023/03/17 06:28:26;;;;;;;4.38;4.10;;;;;;;5.69;78.03;100318.97;6135663;23;20040;-74
2023/03/17 06:30:53;;;;;;;4.38;4.07;;;;;;;6.10;77.98;100394.69;6120325;23;20624;-74
2023/03/17 06:33:19;;;;;;;4.35;4.07;;;;;;;6.59;77.84;100447.50;6083851;23;20040;-74
2023/03/17 06:35:46;;;;;;;4.20;4.00;;;;;;;6.61;77.58;100440.47;6135172;23;20036;-74
2023/03/17 06:38:12;;;;;;;4.45;4.15;;;;;;;6.19;76.72;100360.47;6113358;23;20092;-74
2023/03/17 06:40:39;;;;;;;4.70;4.32;;;;;;;5.82;76.16;100281.13;6121873;23;20786;-74
2023/03/17 06:43:06;;;;;;;4.82;4.53;;;;;;;6.79;74.79;100411.06;6135703;23;20084;-74
2023/03/17 06:45:33;;;;;;;7.07;5.03;;;;;;;6.24;74.46;100311.63;6083470;23;20386;-75
2023/03/17 06:48:01;;;;;;;5.18;3.83;;;;;;;7.06;73.54;100426.47;6112072;23;20029;-74
2023/03/17 06:50:27;;;;;;;5.05;4.70;;;;;;;6.10;74.45;100269.66;6118487;23;20021;-74
2023/03/17 06:52:54;;;;;;;4.20;3.90;;;;;;;6.91;73.47;100380.97;6136999;23;20090;-75
2023/03/17 06:55:21;;;;;;;5.18;4.20;;;;;;;7.18;74.16;100428.56;6112470;23;20040;-74
2023/03/17 06:57:47;;;;;;;4.60;4.20;;;;;;;7.27;73.41;100437.75;6138613;23;20028;-74
2023/03/17 07:00:21;;;;;;;4.60;4.25;;;;;;;6.38;72.59;100274.56;6135721;23;20029;-74
2023/03/17 07:02:48;;;;;;;5.93;4.40;;;;;;;7.40;72.00;100417.19;6117832;23;20496;-74
2023/03/17 07:05:14;;;;;;;4.38;4.07;;;;;;;7.33;72.34;100400.94;6135128;23;20033;-74
2023/03/17 07:07:41;;;;;;;4.95;4.57;;;;;;;7.65;71.20;100424.78;6103069;23;20013;-74
2023/03/17 07:10:12;;;;;;;5.45;4.28;;;;;;;7.79;70.37;100417.16;6109591;23;20083;-75
2023/03/17 07:12:39;;;;;;;4.70;4.40;;;;;;;7.51;71.12;100369.72;6129763;23;20025;-75
2023/03/17 07:15:05;;;;;;;4.47;4.18;;;;;;;6.91;70.45;100265.38;6116158;23;20127;-76
2023/03/17 07:17:32;;;;;;;5.07;4.63;;;;;;;8.02;69.60;100422.28;6107115;23;20037;-75
2023/03/17 07:19:58;;;;;;;4.68;4.32;;;;;;;8.23;69.02;100426.50;6121458;23;20079;-76
2023/03/17 07:22:25;;;;;;;4.22;3.95;;;;;;;8.10;67.52;100349.59;6103429;23;20033;-73
2023/03/17 07:24:52;;;;;;;6.25;4.53;;;;;;;8.22;67.10;100351.63;6140530;23;20025;-74
2023/03/17 07:27:18;;;;;;;6.43;4.95;;;;;;;7.89;66.81;100268.69;6114392;23;20276;-74
2023/03/17 07:29:48;;;;;;;4.90;4.40;;;;;;;8.73;65.90;100388.41;6115486;23;20398;-74
2023/03/17 07:32:14;;;;;;;4.75;4.32;;;;;;;8.71;65.61;100349.25;6139122;23;20028;-74
2023/03/17 07:34:41;;;;;;;6.70;4.50;;;;;;;8.93;65.01;100364.72;6129968;23;20009;-75
2023/03/17 07:37:09;;;;;;;4.50;4.30;;;;;;;9.09;64.45;100353.47;6140136;23;20476;-75
2023/03/17 07:39:35;;;;;;;4.80;4.50;;;;;;;9.13;64.50;100341.91;6112876;23;20080;-74
2023/03/17 07:42:02;;;;;;;5.25;4.88;;;;;;;8.57;64.05;100257.53;6134450;23;20045;-74
2023/03/17 07:44:29;;;;;;;4.60;4.30;;;;;;;9.30;63.65;100347.13;6088026;23;20049;-75
2023/03/17 07:46:55;;;;;;;8.85;4.95;;;;;;;8.82;63.27;100264.13;6140766;23;20395;-75
2023/03/17 07:49:22;;;;;;;4.80;4.50;;;;;;;9.42;63.11;100334.28;6136300;23;20036;-73
2023/03/17 07:52:08;;;;;;;5.20;4.80;;;;;;;9.08;62.72;100294.16;6102784;23;20598;-74
2023/03/17 07:54:35;;;;;;;5.30;4.90;;;;;;;9.32;62.88;100315.59;6108749;23;20048;-73
2023/03/17 07:57:03;;;;;;;4.88;4.47;;;;;;;9.03;63.29;100262.19;6112045;23;20058;-73
2023/03/17 07:59:30;;;;;;;4.57;4.35;;;;;;;9.35;62.54;100315.44;6120522;23;20095;-73
2023/03/17 08:01:58;;;;;;;4.75;4.45;;;;;;;8.50;63.08;100185.53;6136774;23;20491;-73
2023/03/17 08:04:26;;;;;;;5.53;5.03;;;;;;;9.21;63.58;100315.34;6140106;23;20023;-73
2023/03/17 08:06:53;;;;;;;5.18;4.88;;;;;;;9.31;62.89;100322.63;6112948;23;20017;-75
2023/03/17 08:09:21;;;;;;;5.00;4.70;;;;;;;9.55;62.94;100348.44;6137524;23;20066;-74
2023/03/17 08:11:47;;;;;;;5.80;5.43;;;;;;;9.07;62.61;100277.63;6119065;23;20028;-75
2023/03/17 08:14:14;;;;;;;4.95;4.65;;;;;;;9.31;63.33;100320.00;6140497;23;20036;-75
2023/03/17 08:16:41;;;;;;;5.50;5.10;;;;;;;8.90;62.40;100241.03;6115130;23;20033;-75
2023/03/17 08:19:07;;;;;;;5.10;4.80;;;;;;;9.07;61.97;100234.91;6138349;23;20111;-75
2023/03/17 08:21:34;;;;;;;4.88;4.53;;;;;;;9.62;62.03;100341.09;6112174;23;20040;-74
2023/03/17 08:24:00;;;;;;;5.40;4.90;;;;;;;9.65;61.59;100325.22;6144400;23;20009;-75
2023/03/17 08:26:27;;;;;;;4.95;4.65;;;;;;;9.32;61.72;100265.84;6113875;23;20071;-75
2023/03/17 08:28:53;;;;;;;5.18;4.88;;;;;;;9.90;61.90;100343.91;6111985;23;20085;-75
2023/03/17 08:31:21;;;;;;;5.05;4.68;;;;;;;10.06;61.50;100349.13;6143542;23;20005;-75
2023/03/17 08:33:51;;;;;;;5.55;5.13;;;;;;;10.05;61.05;100329.09;6139537;23;20033;-74
2023/03/17 08:36:17;;;;;;;5.10;4.82;;;;;;;8.84;61.26;100145.41;6110584;23;20022;-75
2023/03/17 08:38:45;;;;;;;5.05;4.65;;;;;;;10.08;61.56;100349.91;6136721;23;20016;-75
2023/03/17 08:41:15;;;;;;;5.20;4.90;;;;;;;10.15;61.30;100361.72;6110682;23;20013;-77
2023/03/17 08:43:42;;;;;;;4.88;4.57;;;;;;;10.16;61.22;100345.06;6133706;23;20029;-75
2023/03/17 08:46:21;;;;;;;5.32;4.82;;;;;;;10.29;60.36;100355.72;6119589;23;20013;-75
2023/03/17 08:48:49;;;;;;;5.53;5.03;;;;;;;10.28;61.36;100356.63;6141140;23;20025;-75
2023/03/17 08:51:17;;;;;;;5.22;4.93;;;;;;;10.14;60.50;100322.47;6112817;23;20051;-75
2023/03/17 08:53:46;;;;;;;5.07;4.78;;;;;;;10.04;60.73;100292.47;6121224;23;20042;-76
2023/03/17 08:56:13;;;;;;;5.38;5.07;;;;;;;9.50;60.90;100198.50;6144469;23;20017;-76
2023/03/17 08:58:42;;;;;;;10.10;4.85;;;;;;;10.63;60.24;100343.31;6114448;23;20578;-76
2023/03/17 09:01:09;;;;;;;5.68;5.18;;;;;;;10.49;60.48;100338.03;6089260;23;20108;-76
2023/03/17 09:03:38;;;;;;;4.65;4.45;;;;;;;10.95;59.61;100348.47;6117682;23;20036;-75
2023/03/17 09:06:06;;;;;;;5.00;4.63;;;;;;;11.25;59.45;100360.69;6083978;23;20218;-76
2023/03/17 09:08:34;;;;;;;4.78;4.55;;;;;;;11.49;58.40;100334.72;6114520;23;20017;-76
2023/03/17 09:11:02;;;;;;;4.90;4.50;;;;;;;11.51;58.03;100331.03;6138143;23;20016;-76
2023/03/17 09:13:29;;;;;;;5.35;4.95;;;;;;;10.76;57.93;100199.94;6112387;23;20052;-76
2023/03/17 09:15:55;;;;;;;10.13;4.72;;;;;;;11.48;57.22;100270.78;6120600;23;20030;-76
2023/03/17 09:18:21;;;;;;;5.05;4.75;;;;;;;11.57;56.25;100249.19;6112896;23;20030;-75
2023/03/17 09:20:48;;;;;;;5.32;4.95;;;;;;;11.53;57.12;100273.97;6110801;23;20033;-75
2023/03/17 09:23:15;;;;;;;6.20;5.07;;;;;;;12.11;56.18;100295.72;6138979;23;20047;-75
2023/03/17 09:25:42;;;;;;;5.88;5.28;;;;;;;12.18;56.05;100312.78;6121478;23;20672;-75
2023/03/17 09:28:11;;;;;;;5.15;4.80;;;;;;;12.22;56.31;100309.97;6137993;23;20021;-76
2023/03/17 09:30:44;;;;;;;5.20;4.80;;;;;;;11.92;57.07;100280.28;6116940;23;20028;-75
2023/03/17 09:33:12;;;;;;;7.00;6.50;;;;;;;12.19;57.08;100300.50;6112296;23;20443;-76
2023/03/17 09:35:39;;;;;;;7.95;5.68;;;;;;;12.11;56.27;100253.63;6117456;23;20029;-74
2023/03/17 09:38:07;;;;;;;7.35;5.35;;;;;;;12.16;55.64;100227.84;6135313;23;20025;-74
2023/03/17 09:40:46;;;;;;;5.65;5.15;;;;;;;11.87;55.21;100169.28;6084365;23;20081;-75
2023/03/17 09:43:41;;;;;;;5.70;5.30;;;;;;;12.36;54.92;100225.69;6120472;23;20025;-74
2023/03/17 09:46:38;;;;;;;5.20;4.90;;;;;;;11.22;54.71;100056.19;6141472;23;20035;-75
2023/03/17 09:49:13;;;;;;;5.32;4.95;;;;;;;12.64;55.31;100290.47;6132436;23;20846;-74
2023/03/17 09:51:39;;;;;;;5.70;5.20;;;;;;;12.72;55.27;100284.69;6119498;23;20125;-74
2023/03/17 09:54:23;;;;;;;5.25;4.85;;;;;;;12.61;55.43;100252.97;6141439;23;20030;-74
2023/03/17 09:56:57;;;;;;;5.90;5.25;;;;;;;12.89;54.14;100255.44;6095400;23;20028;-74
2023/03/17 09:59:37;;;;;;;5.40;5.00;;;;;;;13.01;53.61;100232.66;6140626;23;20046;-74
2023/03/17 10:02:25;;;;;;;6.22;5.35;;;;;;;13.55;53.45;100265.78;6103271;23;20021;-75
2023/03/17 10:04:52;;;;;;;5.70;5.30;;;;;;;13.62;53.52;100274.94;6112200;23;20017;-74
2023/03/17 10:07:38;;;;;;;5.95;5.30;;;;;;;12.96;52.78;100132.88;6121058;23;20013;-74
2023/03/17 10:10:15;;;;;;;5.22;4.93;;;;;;;13.42;52.39;100217.53;6138394;23;20024;-75
2023/03/17 10:12:50;;;;;;;5.53;5.15;;;;;;;13.57;52.75;100225.19;6116300;23;20029;-74
2023/03/17 10:15:22;;;;;;;5.43;5.13;;;;;;;13.54;52.69;100209.56;6137591;23;20088;-74
2023/03/17 10:17:50;;;;;;;5.82;5.32;;;;;;;13.26;52.71;100205.41;6108845;23;20025;-74
2023/03/17 10:20:26;;;;;;;5.80;5.22;;;;;;;13.57;52.48;100251.56;6138460;23;20121;-74
2023/03/17 10:22:59;;;;;;;5.70;5.35;;;;;;;13.57;53.40;100263.91;6108626;23;20152;-74
2023/03/17 10:25:32;;;;;;;6.40;5.47;;;;;;;13.77;52.80;100280.91;6136958;23;20013;-75
2023/03/17 10:28:11;;;;;;;5.70;5.30;;;;;;;14.03;52.51;100288.72;6115559;23;20496;-73
2023/03/17 10:30:38;;;;;;;5.22;4.93;;;;;;;14.11;52.69;100273.16;6088038;23;20027;-73
2023/03/17 10:33:08;;;;;;;8.88;5.18;;;;;;;13.99;51.84;100208.09;6115413;23;20048;-74
2023/03/17 10:35:38;;;;;;;5.32;5.03;;;;;;;13.54;51.43;100170.03;6106409;23;20026;-74
2023/03/17 10:38:21;;;;;;;5.40;5.07;;;;;;;14.06;52.07;100249.75;6136516;23;20663;-74
2023/03/17 10:40:57;;;;;;;5.82;5.30;;;;;;;14.19;51.78;100264.69;6109107;23;20032;-74
2023/03/17 10:43:29;;;;;;;8.52;5.30;;;;;;;14.44;51.57;100245.22;6107337;23;20037;-74
2023/03/17 10:46:01;;;;;;;5.78;5.47;;;;;;;14.00;51.04;100126.22;6134616;23;20040;-74
2023/03/17 10:48:29;;;;;;;4.70;4.50;;;;;;;14.98;49.57;100194.41;6120921;23;20053;-74
2023/03/17 10:50:59;;;;;;;5.20;4.90;;;;;;;15.04;48.86;100169.31;6137319;23;20621;-75
2023/03/17 10:53:29;;;;;;;5.45;5.15;;;;;;;15.09;49.89;100185.63;6142947;23;20139;-74
2023/03/17 10:55:59;;;;;;;5.63;5.32;;;;;;;14.24;49.08;100015.28;6144346;23;20486;-74
2023/03/17 10:58:37;;;;;;;5.63;5.18;;;;;;;15.56;49.55;100236.50;6128539;23;20093;-75
2023/03/17 11:01:16;;;;;;;6.30;5.88;;;;;;;15.68;48.01;100157.97;6114274;23;20025;-75
2023/03/17 11:03:45;;;;;;;10.68;5.30;;;;;;;15.73;48.05;100155.78;6115548;23;20033;-74
2023/03/17 11:06:18;;;;;;;5.75;5.35;;;;;;;15.10;47.17;100011.06;6137474;23;20100;-76
2023/03/17 11:08:52;;;;;;;5.20;4.93;;;;;;;15.59;46.88;100076.72;6111402;23;20030;-74
2023/03/17 11:11:26;;;;;;;5.68;5.28;;;;;;;15.32;48.06;100078.03;6140437;23;20483;-75
2023/03/17 11:14:12;;;;;;;6.00;5.40;;;;;;;15.62;47.76;100142.59;6085254;23;20038;-75
2023/03/17 11:17:00;;;;;;;5.63;5.20;;;;;;;15.77;47.40;100141.34;6134859;23;20104;-75
2023/03/17 11:19:44;;;;;;;5.32;5.03;;;;;;;15.45;47.21;100083.16;6140378;23;20025;-74
2023/03/17 11:22:32;;;;;;;14.38;5.75;;;;;;;15.68;47.08;100111.19;6086929;23;20035;-76
2023/03/17 11:25:08;;;;;;;5.40;5.10;;;;;;;15.81;48.29;100153.34;6140556;23;20020;-76
2023/03/17 11:28:03;;;;;;;5.38;5.00;;;;;;;15.80;48.02;100159.63;6138342;23;20477;-76
2023/03/17 11:30:42;;;;;;;5.55;5.20;;;;;;;16.07;47.02;100087.66;6076548;23;20029;-76
2023/03/17 11:33:45;;;;;;;5.90;5.50;;;;;;;16.30;46.94;100124.59;6092478;23;20014;-76
2023/03/17 11:36:51;;;;;;;5.80;5.40;;;;;;;16.37;46.96;100128.38;6141722;23;20013;-76
2023/03/17 11:39:59;;;;;;;6.53;5.90;;;;;;;15.54;46.62;99968.69;6108676;23;20032;-75
2023/03/17 11:42:50;;;;;;;6.00;5.50;;;;;;;16.15;46.75;100057.88;6082265;23;20022;-75